This is the latest recevied weather packets stored in our database for station/object M0IQF-13. If no packets are shown the sender has not sent any weather packets the latest 10 day(s).
| Time | Temp. | Humidity | Pressure | Rain* | Wind** | Luminosity | Snow |
|---|---|---|---|---|---|---|---|
| 1777386659 | 21.11° C | 40% | 1023.5 hPa | - | - | - | - |
| 1777385752 | 21.67° C | 42% | 1023.6 hPa | - | - | - | - |
| 1777383939 | 21.11° C | 41% | 1023.8 hPa | - | - | - | - |
| 1777383031 | 19.44° C | 44% | 1024 hPa | - | - | - | - |
| 1777381217 | 23.33° C | 39% | 1024.2 hPa | - | - | - | - |
| 1777378496 | 21.67° C | 49% | 1024.7 hPa | - | - | - | - |
| 1777372147 | 15° C | 100% | 1025.3 hPa | - | - | - | - |
| 1777371240 | 16.67° C | 92% | 1025.1 hPa | - | - | - | - |
| 1777370332 | 15° C | 100% | 1025.2 hPa | - | - | - | - |
| 1777368518 | 13.89° C | 100% | 1025.1 hPa | - | - | - | - |
| 1777366704 | 12.78° C | 100% | 1025.1 hPa | - | - | - | - |
| 1777364890 | 13.89° C | 100% | 1025 hPa | - | - | - | - |
| 1777363983 | 13.33° C | 100% | 1024.9 hPa | - | - | - | - |
| 1777363076 | 13.89° C | 100% | 1024.7 hPa | - | - | - | - |
| 1777362169 | 13.33° C | 100% | 1024.7 hPa | - | - | - | - |
| 1777361262 | 14.44° C | 100% | 1024.7 hPa | - | - | - | - |
| 1777360355 | 14.44° C | 100% | 1024.6 hPa | - | - | - | - |
| 1777359448 | 12.22° C | 100% | 1024.5 hPa | - | - | - | - |
| 1777357634 | 12.78° C | 100% | 1024.4 hPa | - | - | - | - |
| 1777356727 | 12.78° C | 100% | 1024.4 hPa | - | - | - | - |
| 1777355820 | 13.33° C | 100% | 1024.3 hPa | - | - | - | - |
| 1777354006 | 12.22° C | 100% | 1023.8 hPa | - | - | - | - |
| 1777353098 | 13.89° C | 100% | 1023.7 hPa | - | - | - | - |
| 1777352191 | 12.22° C | 100% | 1023.5 hPa | - | - | - | - |
| 1777350377 | 12.78° C | 100% | 1023.2 hPa | - | - | - | - |
* Rain since midnight (hover to see other rain measurements)
** Current wind speed in m/s (hover to see current wind gust speed)